Time;durP1;ratioP1;P1;durP2;ratioP2;P2;SDS_P1;SDS_P2;PMS_P1;PMS_P2;Temp;Humidity;BMP_temperature;BMP_pressure;BME280_temperature;BME280_humidity;BME280_pressure;Samples;Min_cycle;Max_cycle;Signal;HPM_P1;HPM_P2
2021/04/10 00:01:23;;;;;;;7.72;3.72;;;;;;;7.85;43.19;95564.28;5027059;28;20140;-57
2021/04/10 00:03:49;;;;;;;9.52;3.53;;;;;;;7.78;43.97;95564.78;5018521;28;20167;-60
2021/04/10 00:06:16;;;;;;;11.30;3.30;;;;;;;7.70;43.92;95568.28;5014471;28;20140;-61
2021/04/10 00:08:42;;;;;;;6.65;3.60;;;;;;;7.69;43.47;95555.94;5007353;28;20178;-58
2021/04/10 00:11:09;;;;;;;13.52;5.70;;;;;;;7.66;44.13;95570.06;5025533;28;20053;-59
2021/04/10 00:13:36;;;;;;;17.83;8.70;;;;;;;7.49;44.59;95565.50;5015200;28;20541;-62
2021/04/10 00:16:02;;;;;;;6.95;3.30;;;;;;;7.40;44.73;95559.34;5020608;28;20523;-56
2021/04/10 00:18:29;;;;;;;20.08;11.75;;;;;;;7.10;46.47;95550.41;5004169;28;20046;-56
2021/04/10 00:20:55;;;;;;;5.78;3.42;;;;;;;7.01;45.81;95559.25;5017395;28;20068;-58
2021/04/10 00:23:22;;;;;;;7.60;3.50;;;;;;;7.06;45.57;95555.63;5028450;28;20054;-56
2021/04/10 00:25:48;;;;;;;7.70;3.50;;;;;;;6.89;46.37;95550.25;5018059;28;20538;-58
2021/04/10 00:28:27;;;;;;;6.15;3.13;;;;;;;6.86;47.83;95548.19;5029339;28;20048;-55
2021/04/10 00:31:06;;;;;;;9.25;3.40;;;;;;;6.82;48.26;95548.03;5030173;28;20046;-59
2021/04/10 00:33:37;;;;;;;7.57;3.17;;;;;;;6.73;48.30;95545.38;5023296;28;20059;-60
2021/04/10 00:36:07;;;;;;;11.90;3.75;;;;;;;6.77;49.58;95537.47;5024096;28;20045;-59
2021/04/10 00:38:35;;;;;;;7.55;3.72;;;;;;;6.67;49.19;95548.53;5021724;28;20049;-59
2021/04/10 00:41:03;;;;;;;8.23;3.65;;;;;;;6.62;49.51;95544.09;5017932;28;20057;-61
2021/04/10 00:43:30;;;;;;;10.60;3.90;;;;;;;6.61;48.69;95539.84;5013946;28;20049;-57
2021/04/10 00:45:57;;;;;;;6.88;3.58;;;;;;;6.59;47.50;95533.19;5027491;28;20053;-60
2021/04/10 00:48:23;;;;;;;6.32;3.58;;;;;;;6.56;48.18;95531.91;5009140;28;20042;-60
2021/04/10 00:50:51;;;;;;;6.95;3.63;;;;;;;6.55;47.93;95524.97;5018994;28;20061;-57
2021/04/10 00:53:21;;;;;;;6.45;3.33;;;;;;;6.51;49.56;95529.41;5007120;28;20041;-58
2021/04/10 00:55:49;;;;;;;6.57;3.33;;;;;;;6.39;48.33;95523.84;5021399;28;20068;-59
2021/04/10 00:58:16;;;;;;;5.40;3.50;;;;;;;6.49;48.13;95526.22;5024508;28;20060;-59
2021/04/10 01:00:42;;;;;;;7.28;3.08;;;;;;;6.16;49.54;95529.34;5021766;28;20057;-59
2021/04/10 01:03:09;;;;;;;7.95;3.42;;;;;;;6.19;48.37;95526.03;5017573;28;20072;-57
2021/04/10 01:05:36;;;;;;;6.68;3.55;;;;;;;6.24;48.01;95519.72;5017566;28;20065;-59
2021/04/10 01:08:04;;;;;;;6.43;3.20;;;;;;;6.17;48.60;95525.56;5020556;28;20065;-59
2021/04/10 01:10:31;;;;;;;8.80;3.40;;;;;;;6.21;49.50;95528.44;5007838;28;20063;-59
2021/04/10 01:13:16;;;;;;;5.38;3.22;;;;;;;6.19;49.12;95531.41;5019241;28;20050;-59
2021/04/10 01:15:54;;;;;;;6.20;3.40;;;;;;;6.07;48.49;95526.63;5026374;28;20159;-60
2021/04/10 01:18:45;;;;;;;6.22;2.97;;;;;;;6.06;48.87;95526.97;5015464;28;20053;-58
2021/04/10 01:21:27;;;;;;;5.88;3.30;;;;;;;6.13;49.99;95524.59;4995128;28;20061;-57
2021/04/10 01:24:32;;;;;;;9.05;4.22;;;;;;;6.25;48.88;95532.84;4999458;28;20681;-60
2021/04/10 01:27:08;;;;;;;;;;;;;;;6.09;48.50;95532.50;5024735;28;20129;-59
2021/04/10 01:29:42;;;;;;;6.90;3.20;;;;;;;6.11;48.58;95534.88;5045034;28;20365;-59
2021/04/10 01:32:11;;;;;;;6.45;2.97;;;;;;;6.19;48.37;95536.78;5015204;28;20037;-57
2021/04/10 01:34:42;;;;;;;5.45;2.97;;;;;;;6.34;47.43;95543.63;5010172;28;20054;-60
2021/04/10 01:37:23;;;;;;;5.65;3.03;;;;;;;6.55;46.91;95541.09;5017978;28;20049;-60
2021/04/10 01:39:51;;;;;;;4.65;2.88;;;;;;;6.57;47.61;95536.22;4998150;28;20049;-60
2021/04/10 01:42:20;;;;;;;6.53;2.78;;;;;;;6.90;46.00;95535.72;5024019;28;20546;-60
2021/04/10 01:44:47;;;;;;;5.57;2.70;;;;;;;7.14;45.12;95543.28;5020843;28;20076;-60
2021/04/10 01:47:16;;;;;;;6.55;3.00;;;;;;;7.23;44.69;95542.16;5007780;28;20122;-59
2021/04/10 01:49:49;;;;;;;5.35;3.00;;;;;;;7.08;47.02;95542.63;5026201;28;20133;-60
2021/04/10 01:52:18;;;;;;;5.30;3.05;;;;;;;7.07;45.85;95543.75;5016042;28;20125;-58
2021/04/10 01:54:45;;;;;;;7.18;3.20;;;;;;;7.00;46.01;95546.94;5019767;28;20574;-59
2021/04/10 01:57:14;;;;;;;8.32;3.15;;;;;;;7.21;45.04;95548.94;4998580;28;20508;-60
2021/04/10 01:59:43;;;;;;;5.30;2.95;;;;;;;7.25;44.97;95542.63;5040904;28;20053;-61
2021/04/10 02:02:18;;;;;;;5.55;2.80;;;;;;;7.47;44.28;95546.19;5016501;28;20447;-60
2021/04/10 02:04:50;;;;;;;7.38;3.72;;;;;;;7.45;44.39;95548.44;4990275;28;20050;-60
2021/04/10 02:07:25;;;;;;;7.53;3.17;;;;;;;7.60;43.93;95544.41;5023547;28;20419;-60
2021/04/10 02:09:56;;;;;;;9.27;3.40;;;;;;;7.67;43.58;95540.13;5001244;28;20057;-57
2021/04/10 02:12:41;;;;;;;7.50;3.10;;;;;;;7.75;43.47;95543.09;5023275;28;20169;-56
2021/04/10 02:15:21;;;;;;;6.00;3.03;;;;;;;7.75;43.49;95538.50;5029901;28;20049;-56
2021/04/10 02:17:48;;;;;;;6.20;3.40;;;;;;;7.64;43.19;95543.47;5010248;28;20041;-58
2021/04/10 02:20:17;;;;;;;6.30;2.95;;;;;;;7.81;43.01;95536.44;5009593;28;20046;-56
2021/04/10 02:22:50;;;;;;;8.43;3.50;;;;;;;7.88;42.76;95537.50;5023764;28;20045;-59
2021/04/10 02:25:26;;;;;;;6.22;2.80;;;;;;;7.94;42.41;95538.09;5016619;28;20049;-58
2021/04/10 02:27:56;;;;;;;8.02;3.08;;;;;;;8.04;42.29;95540.44;5000394;28;20483;-57
2021/04/10 02:30:24;;;;;;;6.18;3.10;;;;;;;8.06;41.99;95538.22;5024564;28;20057;-58
2021/04/10 02:33:04;;;;;;;7.30;3.13;;;;;;;8.11;42.04;95540.69;5025655;28;20041;-60
2021/04/10 02:35:52;;;;;;;6.07;3.08;;;;;;;8.18;41.79;95532.88;5016188;28;20102;-60
2021/04/10 02:38:22;;;;;;;5.90;3.10;;;;;;;8.22;41.70;95545.72;5007277;28;20052;-57
2021/04/10 02:41:04;;;;;;;4.50;2.95;;;;;;;8.16;41.79;95529.75;5025240;28;20049;-57
2021/04/10 02:43:34;;;;;;;6.57;2.85;;;;;;;8.19;41.84;95529.09;5015910;28;20107;-54
2021/04/10 02:46:03;;;;;;;4.78;2.88;;;;;;;8.20;41.86;95530.66;5025815;28;20207;-57
2021/04/10 02:49:01;;;;;;;5.68;2.70;;;;;;;8.24;41.82;95536.19;5023223;28;20411;-57
2021/04/10 02:51:34;;;;;;;6.13;2.65;;;;;;;8.33;41.58;95531.53;5027962;28;20073;-57
2021/04/10 02:54:04;;;;;;;5.28;2.70;;;;;;;8.24;42.08;95530.00;5017434;28;20049;-55
2021/04/10 02:56:34;;;;;;;6.05;2.55;;;;;;;8.30;41.66;95523.31;5023652;28;20057;-59
2021/04/10 02:59:02;;;;;;;6.07;2.70;;;;;;;8.30;41.65;95524.09;5019171;28;20057;-58
2021/04/10 03:01:30;;;;;;;7.82;2.80;;;;;;;8.26;41.97;95528.56;5027945;28;20056;-58
2021/04/10 03:03:59;;;;;;;7.47;2.75;;;;;;;8.27;41.77;95526.66;5013473;28;20133;-59
2021/04/10 03:06:33;;;;;;;4.75;3.00;;;;;;;8.29;41.90;95529.84;5015659;28;20050;-60
2021/04/10 03:09:01;;;;;;;6.00;2.90;;;;;;;8.38;41.78;95530.56;5014897;28;20077;-58
2021/04/10 03:11:29;;;;;;;5.25;2.85;;;;;;;8.34;42.03;95524.22;5026422;28;20111;-61
2021/04/10 03:13:55;;;;;;;4.75;2.47;;;;;;;8.38;41.64;95531.38;5016395;28;20133;-59
2021/04/10 03:16:29;;;;;;;6.00;2.85;;;;;;;8.31;41.73;95530.28;5029771;28;20054;-56
2021/04/10 03:19:05;;;;;;;7.07;2.70;;;;;;;8.33;41.81;95531.53;5017432;28;20053;-57
2021/04/10 03:21:38;;;;;;;6.57;2.88;;;;;;;8.27;42.22;95523.97;5027584;28;20045;-59
2021/04/10 03:24:07;;;;;;;8.75;3.17;;;;;;;8.37;42.03;95532.47;5008512;28;20075;-59
2021/04/10 03:26:35;;;;;;;5.22;2.70;;;;;;;8.24;42.39;95541.56;5028827;23;20485;-55
2021/04/10 03:29:04;;;;;;;8.00;3.15;;;;;;;8.20;42.60;95537.97;5007127;28;20453;-56
2021/04/10 03:31:38;;;;;;;5.22;2.72;;;;;;;8.22;42.61;95538.41;5040298;28;20140;-52
2021/04/10 03:34:06;;;;;;;5.32;2.85;;;;;;;8.14;42.59;95542.75;5048248;28;20168;-56
2021/04/10 03:36:35;;;;;;;7.30;3.10;;;;;;;8.13;42.67;95535.00;5034396;28;20155;-51
2021/04/10 03:39:02;;;;;;;5.65;3.08;;;;;;;8.04;42.77;95540.44;5005436;28;20047;-51
2021/04/10 03:41:30;;;;;;;5.25;3.15;;;;;;;7.97;42.99;95535.53;5040370;28;20049;-52
2021/04/10 03:43:58;;;;;;;5.43;3.50;;;;;;;7.97;43.05;95540.16;5042452;28;20052;-55
2021/04/10 03:46:25;;;;;;;4.32;2.88;;;;;;;7.87;43.34;95538.63;5045199;28;20436;-53
2021/04/10 03:48:52;;;;;;;4.65;2.80;;;;;;;7.94;43.45;95541.59;5046858;28;20045;-53
2021/04/10 03:51:24;;;;;;;5.00;2.70;;;;;;;7.98;43.10;95541.72;5042051;28;20049;-54
2021/04/10 03:53:57;;;;;;;5.90;3.50;;;;;;;7.86;43.41;95544.31;5036905;28;20374;-52
2021/04/10 03:56:26;;;;;;;5.60;2.85;;;;;;;7.87;43.52;95541.31;5029208;28;20045;-52
2021/04/10 03:58:57;;;;;;;6.75;3.00;;;;;;;7.89;43.60;95546.34;5046212;28;20379;-52
2021/04/10 04:01:36;;;;;;;5.65;3.03;;;;;;;7.93;43.10;95550.00;5042010;28;20049;-56
2021/04/10 04:04:03;;;;;;;6.75;3.28;;;;;;;7.93;43.48;95547.31;5029068;28;20042;-53
2021/04/10 04:06:29;;;;;;;5.45;2.80;;;;;;;7.85;43.26;95548.91;5047692;28;20053;-49
2021/04/10 04:08:56;;;;;;;5.10;3.00;;;;;;;7.96;43.43;95547.44;5031002;28;20045;-58
2021/04/10 04:11:22;;;;;;;8.07;3.33;;;;;;;7.97;43.24;95550.94;5042025;28;20483;-54
2021/04/10 04:13:49;;;;;;;5.57;2.92;;;;;;;7.93;43.33;95555.38;5045383;28;20121;-56
2021/04/10 04:16:15;;;;;;;7.38;3.15;;;;;;;8.00;43.15;95547.59;5032757;28;20179;-56
2021/04/10 04:18:42;;;;;;;6.22;3.20;;;;;;;7.96;43.15;95552.03;5048574;28;20197;-53
2021/04/10 04:21:08;;;;;;;7.07;3.15;;;;;;;8.03;42.98;95554.22;5050055;28;20053;-57
2021/04/10 04:23:35;;;;;;;6.63;3.08;;;;;;;8.11;42.72;95551.47;5040247;28;20525;-57
2021/04/10 04:26:01;;;;;;;6.85;3.22;;;;;;;8.11;42.76;95553.38;5043613;28;20087;-56
2021/04/10 04:28:28;;;;;;;6.18;3.13;;;;;;;8.07;42.92;95547.84;5033445;28;20049;-56
2021/04/10 04:30:57;;;;;;;6.72;3.08;;;;;;;8.20;42.57;95554.13;5045318;28;20422;-53
2021/04/10 04:33:23;;;;;;;5.72;3.22;;;;;;;8.21;42.43;95558.41;5026618;28;20057;-53
2021/04/10 04:35:50;;;;;;;8.30;3.22;;;;;;;8.16;42.73;95562.09;5036930;28;20509;-54
2021/04/10 04:38:17;;;;;;;6.15;3.42;;;;;;;8.14;42.92;95558.91;5027965;28;20049;-57
2021/04/10 04:40:43;;;;;;;7.20;3.50;;;;;;;8.27;42.20;95559.78;5045518;28;20049;-56
2021/04/10 04:43:10;;;;;;;7.88;3.63;;;;;;;8.18;42.22;95556.34;5039294;28;20049;-56
2021/04/10 04:45:36;;;;;;;5.57;3.05;;;;;;;8.27;42.15;95559.78;5038581;28;20458;-52
2021/04/10 04:48:03;;;;;;;6.65;3.47;;;;;;;8.28;42.21;95561.38;5017943;28;20053;-57
2021/04/10 04:50:30;;;;;;;6.85;3.40;;;;;;;8.32;41.87;95556.09;5046058;28;20509;-56
2021/04/10 04:52:56;;;;;;;5.40;3.30;;;;;;;8.28;42.13;95574.06;5037536;28;20068;-53
2021/04/10 04:55:23;;;;;;;6.43;3.47;;;;;;;8.27;42.18;95572.50;5025970;28;20112;-56
2021/04/10 04:57:49;;;;;;;5.93;2.95;;;;;;;8.28;41.85;95584.84;5031135;28;20091;-56
2021/04/10 05:00:16;;;;;;;5.90;2.97;;;;;;;8.23;42.00;95590.44;5029465;28;20155;-56
2021/04/10 05:02:44;;;;;;;8.80;3.10;;;;;;;8.18;42.31;95583.31;5034331;28;20049;-56
2021/04/10 05:05:13;;;;;;;7.40;3.40;;;;;;;7.96;42.98;95595.13;5045344;28;20131;-53
2021/04/10 05:07:39;;;;;;;6.00;3.03;;;;;;;8.13;42.69;95592.38;5036248;28;20045;-53
2021/04/10 05:10:07;;;;;;;7.47;3.03;;;;;;;8.14;42.48;95590.47;5041989;28;20059;-52
2021/04/10 05:12:33;;;;;;;7.53;2.92;;;;;;;8.15;42.48;95592.03;5034163;28;20413;-55
2021/04/10 05:15:00;;;;;;;6.10;3.00;;;;;;;8.14;42.59;95599.34;5044457;28;20383;-52
2021/04/10 05:17:26;;;;;;;5.28;2.72;;;;;;;8.16;42.58;95601.72;5026424;28;20053;-53
2021/04/10 05:19:56;;;;;;;4.68;2.75;;;;;;;8.24;42.33;95600.09;5039545;28;20048;-49
2021/04/10 05:22:23;;;;;;;5.80;2.75;;;;;;;8.35;42.43;95607.50;5047957;28;20063;-52
2021/04/10 05:24:49;;;;;;;7.05;2.72;;;;;;;8.24;42.58;95603.56;5031508;28;20045;-51
2021/04/10 05:27:16;;;;;;;7.20;2.80;;;;;;;8.25;42.58;95594.34;5030043;28;20041;-50
2021/04/10 05:29:42;;;;;;;5.45;2.83;;;;;;;8.36;42.17;95603.66;5037755;28;20099;-55
2021/04/10 05:32:09;;;;;;;6.68;2.90;;;;;;;8.43;41.93;95605.88;5044945;28;20067;-56
2021/04/10 05:34:36;;;;;;;9.77;3.13;;;;;;;8.48;41.64;95607.59;5034183;28;20048;-54
2021/04/10 05:37:03;;;;;;;5.75;2.70;;;;;;;8.57;41.68;95600.25;5026819;28;20052;-53
2021/04/10 05:39:29;;;;;;;6.00;2.80;;;;;;;8.62;41.19;95602.75;5036997;28;20041;-55
2021/04/10 05:41:56;;;;;;;7.03;2.40;;;;;;;8.66;41.17;95615.25;5037733;28;20057;-56
2021/04/10 05:44:23;;;;;;;4.07;2.50;;;;;;;8.76;40.87;95603.28;5050077;28;20128;-50
2021/04/10 05:46:50;;;;;;;5.82;2.50;;;;;;;8.79;40.77;95602.63;5030838;28;20054;-53
2021/04/10 05:49:16;;;;;;;5.75;2.15;;;;;;;8.90;40.90;95608.41;5032419;28;20091;-54
2021/04/10 05:51:43;;;;;;;7.45;2.70;;;;;;;8.98;40.31;95607.56;5041917;28;20061;-51
2021/04/10 05:54:09;;;;;;;5.72;2.45;;;;;;;9.05;40.45;95610.53;5050888;28;20056;-50
2021/04/10 05:56:36;;;;;;;5.88;2.28;;;;;;;9.13;40.12;95611.56;5020071;28;20114;-49
2021/04/10 05:59:03;;;;;;;5.75;2.13;;;;;;;9.20;40.60;95602.97;5046179;28;20100;-56
2021/04/10 06:01:29;;;;;;;5.18;2.53;;;;;;;9.29;40.12;95609.84;5044667;28;20053;-50
2021/04/10 06:03:57;;;;;;;4.93;2.15;;;;;;;9.29;40.03;95612.53;5034900;28;20050;-54
2021/04/10 06:06:24;;;;;;;5.20;2.80;;;;;;;9.29;40.48;95612.53;5047971;28;20053;-54
2021/04/10 06:08:51;;;;;;;5.35;2.42;;;;;;;9.31;40.09;95623.00;5037676;28;20043;-49
2021/04/10 06:11:18;;;;;;;7.90;2.50;;;;;;;9.41;40.06;95611.81;5045588;28;20046;-53
2021/04/10 06:13:45;;;;;;;5.65;2.38;;;;;;;9.51;39.82;95610.59;5045940;28;20378;-56
2021/04/10 06:16:12;;;;;;;6.22;2.80;;;;;;;9.58;40.02;95614.31;5038040;28;20057;-55
2021/04/10 06:18:38;;;;;;;4.40;2.40;;;;;;;9.74;39.83;95621.81;5033036;28;20037;-54
2021/04/10 06:21:08;;;;;;;5.75;2.50;;;;;;;9.77;39.84;95621.13;5039405;28;20136;-49
2021/04/10 06:23:35;;;;;;;6.95;2.58;;;;;;;9.92;39.11;95620.50;5045622;28;20049;-53
2021/04/10 06:26:02;;;;;;;6.05;2.58;;;;;;;10.02;39.19;95622.75;5024258;28;20094;-53
2021/04/10 06:28:28;;;;;;;6.68;2.55;;;;;;;10.05;38.81;95624.00;5049134;28;20103;-49
2021/04/10 06:30:56;;;;;;;5.88;2.50;;;;;;;10.14;38.60;95615.78;5039631;28;20450;-49
2021/04/10 06:33:23;;;;;;;6.25;2.90;;;;;;;10.21;38.58;95621.44;5044341;28;20053;-52
2021/04/10 06:35:50;;;;;;;4.22;2.28;;;;;;;10.31;38.28;95615.63;5042918;28;20080;-52
2021/04/10 06:38:17;;;;;;;5.35;2.78;;;;;;;10.39;38.42;95613.91;5033095;28;20511;-51
2021/04/10 06:40:44;;;;;;;3.83;2.40;;;;;;;10.53;37.89;95612.47;5039962;28;20529;-53
2021/04/10 06:43:11;;;;;;;5.78;2.30;;;;;;;10.62;38.25;95616.94;5045566;28;20438;-52
2021/04/10 06:45:38;;;;;;;5.32;2.30;;;;;;;10.73;38.02;95626.19;5035644;28;20466;-52
2021/04/10 06:48:13;;;;;;;8.30;2.47;;;;;;;10.84;37.78;95616.47;5044885;28;20421;-52
2021/04/10 06:50:42;;;;;;;6.05;2.17;;;;;;;10.88;37.60;95617.34;5020904;28;20441;-49
2021/04/10 06:53:14;;;;;;;6.60;2.33;;;;;;;10.89;37.52;95616.25;5044665;28;20064;-49
2021/04/10 06:55:48;;;;;;;4.88;2.08;;;;;;;10.90;37.60;95614.31;5040033;28;20066;-52
2021/04/10 06:58:24;;;;;;;3.58;1.90;;;;;;;10.84;37.64;95611.06;5037005;28;20111;-52
2021/04/10 07:00:54;;;;;;;6.25;1.90;;;;;;;10.84;37.68;95618.38;5046463;28;20047;-50
2021/04/10 07:03:22;;;;;;;4.43;2.08;;;;;;;10.84;37.79;95621.88;5041617;28;20052;-50
2021/04/10 07:05:49;;;;;;;5.25;1.90;;;;;;;10.91;37.48;95626.72;5039965;28;20563;-47
2021/04/10 07:08:16;;;;;;;8.95;2.45;;;;;;;10.92;38.05;95623.69;5039624;28;20126;-53
2021/04/10 07:10:43;;;;;;;4.13;2.15;;;;;;;10.82;38.04;95628.75;5032772;28;20136;-51
2021/04/10 07:13:09;;;;;;;4.93;2.38;;;;;;;11.02;37.88;95624.31;5032626;28;20049;-52
2021/04/10 07:15:35;;;;;;;7.40;2.28;;;;;;;11.03;37.85;95629.41;5039627;28;20077;-55
2021/04/10 07:18:08;;;;;;;5.10;2.10;;;;;;;11.05;37.78;95627.16;5045203;28;20041;-51
2021/04/10 07:20:36;;;;;;;4.43;2.10;;;;;;;11.08;37.88;95620.25;5033802;28;20041;-53
2021/04/10 07:23:10;;;;;;;5.53;2.10;;;;;;;11.21;37.76;95627.19;5032438;28;20057;-55
2021/04/10 07:25:40;;;;;;;5.80;1.90;;;;;;;11.43;37.54;95626.66;5030834;28;20146;-49
2021/04/10 07:28:29;;;;;;;5.85;1.90;;;;;;;11.34;37.76;95626.03;5016266;28;20053;-49
2021/04/10 07:31:07;;;;;;;4.65;1.70;;;;;;;11.71;37.16;95628.59;5032115;28;20049;-52
2021/04/10 07:33:59;;;;;;;4.38;1.98;;;;;;;11.85;36.70;95631.69;5031491;28;20506;-51
2021/04/10 07:36:26;;;;;;;5.03;1.92;;;;;;;12.03;36.86;95634.09;5013137;28;20041;-55
2021/04/10 07:39:00;;;;;;;4.68;2.13;;;;;;;11.95;36.94;95638.53;5013283;28;20043;-54
2021/04/10 07:41:27;;;;;;;7.32;1.85;;;;;;;12.27;36.41;95647.47;5027932;28;20057;-52
2021/04/10 07:43:53;;;;;;;6.88;2.13;;;;;;;12.30;36.24;95637.88;5031331;28;20048;-55
2021/04/10 07:46:23;;;;;;;4.93;1.90;;;;;;;12.40;36.30;95646.25;5032644;28;20171;-57
2021/04/10 07:49:09;;;;;;;6.05;2.00;;;;;;;12.64;36.20;95644.47;5012511;28;20046;-54
2021/04/10 07:51:53;;;;;;;5.50;2.00;;;;;;;12.45;36.44;95641.72;5012465;28;20443;-54
2021/04/10 07:54:25;;;;;;;;;;;;;;;12.65;36.29;95646.06;5012287;28;20053;-50
2021/04/10 07:56:55;;;;;;;4.25;1.80;;;;;;;12.76;36.12;95641.66;5012880;28;20059;-53
2021/04/10 07:59:23;;;;;;;7.13;1.88;;;;;;;12.83;36.96;95644.53;5012803;28;20045;-50
2021/04/10 08:01:49;;;;;;;5.85;1.90;;;;;;;12.94;35.97;95652.16;5030403;28;20399;-54
2021/04/10 08:04:17;;;;;;;4.57;1.95;;;;;;;12.96;35.94;95661.50;5028519;28;20073;-53
2021/04/10 08:06:57;;;;;;;6.65;2.00;;;;;;;12.93;36.18;95650.56;5012583;28;20057;-55
2021/04/10 08:09:35;;;;;;;6.38;2.67;;;;;;;12.84;36.06;95661.63;5028795;28;20083;-52
2021/04/10 08:12:06;;;;;;;7.43;1.77;;;;;;;12.81;36.31;95657.69;5031509;28;20503;-56
2021/04/10 08:14:44;;;;;;;3.97;2.00;;;;;;;12.83;36.38;95666.25;5032082;28;20049;-52
2021/04/10 08:17:13;;;;;;;9.18;1.67;;;;;;;12.75;36.42;95661.03;5029849;28;20057;-53
2021/04/10 08:19:40;;;;;;;5.78;1.95;;;;;;;12.74;36.91;95665.69;5032018;28;20071;-56
2021/04/10 08:22:08;;;;;;;7.30;1.90;;;;;;;12.82;37.00;95670.13;5028561;28;20054;-57
2021/04/10 08:24:42;;;;;;;5.25;1.83;;;;;;;12.76;36.62;95674.25;5031460;28;20115;-55
2021/04/10 08:27:12;;;;;;;4.55;1.50;;;;;;;12.75;37.26;95659.09;5030356;28;20045;-55
2021/04/10 08:29:40;;;;;;;4.68;1.75;;;;;;;12.80;37.03;95664.28;5026690;28;20139;-52
2021/04/10 08:32:09;;;;;;;4.15;1.70;;;;;;;12.87;36.83;95671.78;5029448;28;20096;-49
2021/04/10 08:34:36;;;;;;;2.78;1.55;;;;;;;12.88;36.59;95680.72;5030000;28;20466;-52
2021/04/10 08:37:08;;;;;;;3.28;1.58;;;;;;;12.80;37.02;95669.72;5031204;28;20057;-49
2021/04/10 08:39:39;;;;;;;4.78;1.80;;;;;;;12.81;37.04;95663.13;5027990;28;20586;-54
2021/04/10 08:42:07;;;;;;;4.35;1.80;;;;;;;12.93;37.00;95661.44;5027937;28;20132;-50
2021/04/10 08:44:35;;;;;;;8.50;1.80;;;;;;;12.94;37.04;95658.38;5030190;28;20061;-48
2021/04/10 08:47:03;;;;;;;3.33;1.83;;;;;;;12.93;37.13;95675.00;5026243;28;20053;-52
2021/04/10 08:49:36;;;;;;;3.17;1.80;;;;;;;12.84;37.54;95669.78;5025628;28;20056;-55
2021/04/10 08:52:12;;;;;;;6.65;1.90;;;;;;;12.79;37.71;95670.03;5030598;28;20084;-55
2021/04/10 08:54:41;;;;;;;4.18;1.83;;;;;;;12.57;37.54;95666.03;5031112;28;20080;-49
2021/04/10 08:57:12;;;;;;;2.45;1.42;;;;;;;13.04;37.56;95668.69;5026300;28;20451;-51
2021/04/10 08:59:49;;;;;;;5.00;1.88;;;;;;;13.23;37.40;95670.66;5018831;28;20052;-51
2021/04/10 09:02:20;;;;;;;3.88;1.70;;;;;;;13.62;37.21;95675.38;5030563;28;20434;-55
2021/04/10 09:04:56;;;;;;;6.65;1.70;;;;;;;13.70;36.77;95680.56;5029371;28;20571;-49
2021/04/10 09:07:48;;;;;;;3.92;1.75;;;;;;;13.31;37.47;95675.13;5025622;28;20171;-48
2021/04/10 09:10:24;;;;;;;6.07;2.08;;;;;;;13.26;37.12;95680.06;5024978;28;20042;-49
2021/04/10 09:13:11;;;;;;;6.15;1.73;;;;;;;12.96;36.95;95675.09;5030971;28;20119;-46
2021/04/10 09:15:37;;;;;;;3.72;1.60;;;;;;;13.17;37.10;95682.16;5021297;28;20535;-49
2021/04/10 09:18:06;;;;;;;2.95;1.40;;;;;;;13.26;36.81;95675.41;5029672;28;20049;-52
2021/04/10 09:20:41;;;;;;;3.17;1.80;;;;;;;13.07;38.05;95683.50;5031314;28;20059;-53
2021/04/10 09:23:09;;;;;;;5.55;1.85;;;;;;;13.29;37.38;95685.56;5029376;28;20080;-52
2021/04/10 09:25:36;;;;;;;4.30;2.05;;;;;;;13.45;37.43;95690.94;5025026;28;20083;-51
2021/04/10 09:28:06;;;;;;;8.90;2.30;;;;;;;13.44;36.56;95691.28;5030742;28;20091;-53
2021/04/10 09:30:38;;;;;;;6.22;2.15;;;;;;;13.59;36.61;95690.44;5029146;28;20060;-51
2021/04/10 09:33:29;;;;;;;4.90;2.08;;;;;;;13.08;37.66;95685.84;5030803;28;20090;-49
2021/04/10 09:35:58;;;;;;;4.22;1.73;;;;;;;13.39;36.91;95688.84;5025097;28;20065;-49
2021/04/10 09:38:44;;;;;;;4.93;2.20;;;;;;;13.87;36.11;95687.50;5029373;28;20045;-49
2021/04/10 09:41:12;;;;;;;4.20;2.00;;;;;;;13.95;36.08;95678.34;5031930;28;20054;-54
2021/04/10 09:44:04;;;;;;;4.45;1.83;;;;;;;13.51;36.88;95686.78;5023720;28;20052;-53
2021/04/10 09:46:34;;;;;;;4.05;1.90;;;;;;;13.92;36.15;95691.88;5025889;28;20057;-48
2021/04/10 09:49:00;;;;;;;7.55;1.90;;;;;;;14.07;35.62;95685.56;5030945;28;20050;-48
2021/04/10 09:51:27;;;;;;;4.95;1.95;;;;;;;13.96;35.62;95690.78;5023828;28;20045;-51
2021/04/10 09:53:54;;;;;;;5.43;1.92;;;;;;;13.79;35.90;95686.59;5030705;28;20059;-49
2021/04/10 09:56:22;;;;;;;4.90;2.00;;;;;;;13.99;35.78;95687.34;5027683;28;20061;-48
2021/04/10 09:58:52;;;;;;;4.28;2.10;;;;;;;13.72;37.26;95682.94;5031298;28;20132;-47
2021/04/10 10:01:26;;;;;;;5.70;2.00;;;;;;;14.23;35.68;95680.00;5028810;28;20045;-46
2021/04/10 10:03:54;;;;;;;7.75;2.30;;;;;;;13.59;37.34;95687.75;5031180;28;20122;-50
2021/04/10 10:06:23;;;;;;;4.85;1.83;;;;;;;13.23;37.09;95678.03;5033341;28;20115;-52
2021/04/10 10:08:50;;;;;;;6.80;2.33;;;;;;;13.82;35.94;95673.44;5029678;28;20057;-49
2021/04/10 10:11:18;;;;;;;9.80;2.20;;;;;;;13.40;36.59;95668.69;5029197;28;20561;-51
2021/04/10 10:13:45;;;;;;;3.80;2.03;;;;;;;13.94;35.25;95668.63;5031100;28;20045;-50
2021/04/10 10:16:14;;;;;;;9.07;2.17;;;;;;;14.11;35.21;95672.81;5029760;28;20095;-49
2021/04/10 10:18:43;;;;;;;5.20;2.00;;;;;;;14.02;35.05;95669.53;5026653;28;20049;-49
2021/04/10 10:21:16;;;;;;;5.40;1.77;;;;;;;13.72;36.56;95661.97;5010251;28;20046;-50
2021/04/10 10:23:59;;;;;;;4.97;2.30;;;;;;;13.54;36.90;95658.88;5012285;28;20526;-51
2021/04/10 10:26:53;;;;;;;3.63;2.30;;;;;;;13.98;35.56;95660.53;5024687;28;20136;-52
2021/04/10 10:29:23;;;;;;;4.70;2.00;;;;;;;13.83;36.19;95654.00;4997969;28;20132;-53
2021/04/10 10:31:54;;;;;;;8.05;2.40;;;;;;;14.27;35.59;95650.94;5033327;28;20404;-49
2021/04/10 10:34:26;;;;;;;5.55;2.20;;;;;;;14.46;34.77;95652.78;5022248;28;20053;-54
2021/04/10 10:36:53;;;;;;;4.88;2.00;;;;;;;14.46;34.86;95641.91;5029949;28;20057;-55
2021/04/10 10:39:33;;;;;;;4.57;2.05;;;;;;;14.24;36.47;95638.84;5030961;28;20057;-53
2021/04/10 10:42:03;;;;;;;7.43;2.67;;;;;;;14.41;35.99;95634.06;5033219;28;20059;-55
2021/04/10 10:44:30;;;;;;;8.32;2.60;;;;;;;14.47;35.50;95633.38;5034829;28;20483;-53
2021/04/10 10:46:59;;;;;;;7.38;2.30;;;;;;;14.17;36.37;95625.13;5032073;28;20454;-51
2021/04/10 10:49:26;;;;;;;6.05;2.30;;;;;;;14.21;36.20;95628.69;5033452;28;20076;-52
2021/04/10 10:51:53;;;;;;;4.63;2.20;;;;;;;14.57;34.80;95626.56;5034150;28;20084;-53
2021/04/10 10:54:37;;;;;;;7.40;2.53;;;;;;;14.72;35.12;95616.66;5024801;28;20058;-53
2021/04/10 10:57:17;;;;;;;4.78;2.00;;;;;;;13.90;35.64;95623.44;5032562;28;20057;-51
2021/04/10 11:00:08;;;;;;;5.93;2.75;;;;;;;13.92;36.22;95607.56;5017887;28;20068;-48
2021/04/10 11:02:35;;;;;;;5.45;2.20;;;;;;;14.62;35.43;95607.19;5031791;28;20120;-47
2021/04/10 11:05:02;;;;;;;5.78;2.55;;;;;;;13.88;35.79;95617.59;5033085;28;20041;-50
2021/04/10 11:07:29;;;;;;;4.22;2.60;;;;;;;13.60;36.47;95613.19;5032697;28;20132;-47
2021/04/10 11:09:57;;;;;;;6.45;2.63;;;;;;;13.94;35.81;95605.25;5026919;28;20045;-48
2021/04/10 11:12:25;;;;;;;5.55;2.60;;;;;;;14.23;34.99;95603.81;5034542;28;20506;-53
2021/04/10 11:14:57;;;;;;;5.25;2.60;;;;;;;14.12;35.54;95597.41;5033448;28;20084;-52
2021/04/10 11:17:32;;;;;;;6.03;2.30;;;;;;;14.44;34.38;95593.28;5022535;28;20447;-47
2021/04/10 11:20:02;;;;;;;8.75;2.80;;;;;;;14.93;34.99;95583.50;5033872;28;20045;-49
2021/04/10 11:22:29;;;;;;;6.68;2.88;;;;;;;14.57;34.79;95591.16;5033712;28;20119;-49
2021/04/10 11:25:00;;;;;;;3.95;2.17;;;;;;;15.26;34.59;95579.25;5035100;28;20049;-50
2021/04/10 11:27:34;;;;;;;5.90;2.73;;;;;;;14.89;35.08;95578.03;5031921;28;20576;-50
2021/04/10 11:30:08;;;;;;;4.85;2.22;;;;;;;15.32;34.46;95577.78;5033229;28;20041;-50
2021/04/10 11:32:40;;;;;;;6.45;3.20;;;;;;;14.99;34.59;95573.88;5028527;28;20049;-49
2021/04/10 11:35:18;;;;;;;6.10;2.80;;;;;;;15.56;33.75;95565.59;5024952;28;20054;-50
2021/04/10 11:37:50;;;;;;;6.40;2.55;;;;;;;15.57;34.69;95565.22;5030554;28;20041;-51
2021/04/10 11:40:25;;;;;;;5.57;2.42;;;;;;;15.49;35.04;95562.78;5028765;28;20045;-48
2021/04/10 11:42:57;;;;;;;8.63;2.78;;;;;;;16.59;32.62;95569.25;5044222;28;20064;-50
2021/04/10 11:45:28;;;;;;;6.55;2.40;;;;;;;17.34;32.06;95559.94;5033449;28;20503;-53
2021/04/10 11:48:23;;;;;;;5.93;2.45;;;;;;;17.38;31.23;95563.47;5025336;28;20514;-51
2021/04/10 11:50:54;;;;;;;8.15;3.08;;;;;;;16.60;31.85;95559.13;5032382;28;20038;-50
2021/04/10 11:53:39;;;;;;;5.53;2.65;;;;;;;16.95;32.57;95555.84;5032977;28;20046;-49
2021/04/10 11:56:30;;;;;;;7.20;2.40;;;;;;;14.88;34.62;95556.59;5027399;28;20400;-49